Time;durP1;ratioP1;P1;durP2;ratioP2;P2;SDS_P1;SDS_P2;PMS_P1;PMS_P2;Temp;Humidity;BMP_temperature;BMP_pressure;BME280_temperature;BME280_humidity;BME280_pressure;Samples;Min_cycle;Max_cycle;Signal;HPM_P1;HPM_P2
2021/07/28 00:02:32;;;;;;;8.65;5.05;;;;;;;;;;6135078;28;21034;-79
2021/07/28 00:05:35;;;;;;;8.32;4.55;;;;;;;;;;6116451;28;21072;-79
2021/07/28 00:08:37;;;;;;;8.85;4.85;;;;;;;;;;6142785;28;20395;-79
2021/07/28 00:11:38;;;;;;;6.63;4.18;;;;;;;;;;6152614;28;20108;-79
2021/07/28 00:14:42;;;;;;;7.10;4.75;;;;;;;;;;6176909;28;20052;-79
2021/07/28 00:17:49;;;;;;;6.85;4.40;;;;;;;;;;6178514;28;20041;-79
2021/07/28 00:24:22;;;;;;;7.20;4.13;;;;;;;;;;6084258;28;20389;-79
2021/07/28 00:27:23;;;;;;;6.85;4.38;;;;;;;;;;6140593;28;20228;-79
2021/07/28 00:30:26;;;;;;;7.27;4.57;;;;;;;;;;6175267;28;20069;-79
2021/07/28 00:33:28;;;;;;;7.50;4.37;;;;;;;;;;6175643;28;20486;-79
2021/07/28 00:36:30;;;;;;;7.40;4.63;;;;;;;;;;6141393;28;20100;-79
2021/07/28 00:39:31;;;;;;;7.07;4.25;;;;;;;;;;6160780;28;20372;-79
2021/07/28 00:42:37;;;;;;;11.18;4.32;;;;;;;;;;6139986;28;20037;-79
2021/07/28 00:45:40;;;;;;;7.18;4.38;;;;;;;;;;6194263;28;20057;-79
2021/07/28 00:48:42;;;;;;;6.63;4.10;;;;;;;;;;6181967;28;20057;-79
2021/07/28 00:51:44;;;;;;;12.00;4.68;;;;;;;;;;6144329;28;20292;-79
2021/07/28 00:54:46;;;;;;;7.25;3.90;;;;;;;;;;6158343;28;20216;-79
2021/07/28 00:57:47;;;;;;;5.25;3.58;;;;;;;;;;6157314;28;20088;-79
2021/07/28 01:00:49;;;;;;;17.73;4.82;;;;;;;;;;6157021;28;20100;-80
2021/07/28 01:03:51;;;;;;;9.55;3.92;;;;;;;;;;6156032;28;20100;-79
2021/07/28 01:06:53;;;;;;;9.27;4.13;;;;;;;;;;6165734;28;20105;-79
2021/07/28 01:09:54;;;;;;;8.02;4.60;;;;;;;;;;6141099;28;20108;-79
2021/07/28 01:12:56;;;;;;;5.50;3.60;;;;;;;;;;6155729;28;20034;-79
2021/07/28 01:16:11;;;;;;;9.32;3.13;;;;;;;;;;6150909;28;20034;-79
2021/07/28 01:19:16;;;;;;;3.97;3.05;;;;;;;;;;6152575;28;20805;-79
2021/07/28 01:22:18;;;;;;;7.15;4.00;;;;;;;;;;6154296;28;20058;-79
2021/07/28 01:25:20;;;;;;;6.35;3.92;;;;;;;;;;6155949;28;20132;-79
2021/07/28 01:28:25;;;;;;;8.60;4.40;;;;;;;;;;6144242;28;20751;-79
2021/07/28 01:31:27;;;;;;;5.80;4.07;;;;;;;;;;6148721;28;20318;-80
2021/07/28 01:34:29;;;;;;;7.97;4.30;;;;;;;;;;6142047;28;20079;-79
2021/07/28 01:37:31;;;;;;;5.90;3.60;;;;;;;;;;6185362;28;20093;-79
2021/07/28 01:40:39;;;;;;;5.70;3.70;;;;;;;;;;6155693;28;20077;-79
2021/07/28 01:43:42;;;;;;;6.18;3.90;;;;;;;;;;6152731;28;20053;-79
2021/07/28 01:46:44;;;;;;;;;;;;;;;;;;6157398;28;20310;-79
2021/07/28 01:49:45;;;;;;;10.98;4.35;;;;;;;;;;6147269;28;19929;-79
2021/07/28 01:52:47;;;;;;;8.73;4.80;;;;;;;;;;6153159;28;20045;-79
2021/07/28 01:55:49;;;;;;;10.20;4.68;;;;;;;;;;6170529;28;20347;-79
2021/07/28 01:58:54;;;;;;;37.83;5.67;;;;;;;;;;6137573;28;20173;-80
2021/07/28 02:01:56;;;;;;;10.93;5.40;;;;;;;;;;6139504;28;20433;-80
2021/07/28 02:05:03;;;;;;;8.70;4.90;;;;;;;;;;6165066;28;20383;-80
2021/07/28 02:08:07;;;;;;;15.35;5.50;;;;;;;;;;6155134;28;20050;-82
2021/07/28 02:11:09;;;;;;;36.97;7.00;;;;;;;;;;6156991;28;20050;-83
2021/07/28 02:14:11;;;;;;;12.02;5.57;;;;;;;;;;6161859;28;20534;-82
2021/07/28 02:17:13;;;;;;;12.88;5.88;;;;;;;;;;6136104;28;20050;-82
2021/07/28 02:20:15;;;;;;;10.20;5.22;;;;;;;;;;6166916;28;20042;-82
2021/07/28 02:23:17;;;;;;;10.45;5.75;;;;;;;;;;6150234;28;20050;-83
2021/07/28 02:26:18;;;;;;;11.60;5.68;;;;;;;;;;6167989;28;20228;-82
2021/07/28 02:29:20;;;;;;;12.88;5.72;;;;;;;;;;6144345;28;20244;-82
2021/07/28 02:32:22;;;;;;;10.95;5.63;;;;;;;;;;6143464;28;20061;-82
2021/07/28 02:35:24;;;;;;;9.80;5.60;;;;;;;;;;6140411;28;20034;-83
2021/07/28 02:38:26;;;;;;;10.27;6.00;;;;;;;;;;6167693;28;20052;-82
2021/07/28 02:41:27;;;;;;;13.13;5.93;;;;;;;;;;6149049;28;20049;-82
2021/07/28 02:44:29;;;;;;;8.80;5.50;;;;;;;;;;6141026;28;20086;-82
2021/07/28 02:47:30;;;;;;;10.27;5.70;;;;;;;;;;6142224;28;20088;-82
2021/07/28 02:50:32;;;;;;;11.32;6.00;;;;;;;;;;6157407;28;20113;-82
2021/07/28 02:53:34;;;;;;;9.00;5.47;;;;;;;;;;6156932;28;20050;-83
2021/07/28 02:56:36;;;;;;;8.15;4.88;;;;;;;;;;6166790;28;20137;-83
2021/07/28 02:59:38;;;;;;;8.82;4.78;;;;;;;;;;6166714;28;20062;-83
2021/07/28 03:02:39;;;;;;;11.45;5.32;;;;;;;;;;6165848;28;20056;-82
2021/07/28 03:05:43;;;;;;;8.95;5.50;;;;;;;;;;6140877;28;20105;-79
2021/07/28 03:08:44;;;;;;;9.68;5.25;;;;;;;;;;6126836;28;20313;-81
2021/07/28 03:11:46;;;;;;;9.82;5.70;;;;;;;;;;6146138;28;20102;-81
2021/07/28 03:14:47;;;;;;;13.02;5.85;;;;;;;;;;6159935;28;20104;-81
2021/07/28 03:17:49;;;;;;;10.43;5.85;;;;;;;;;;6176247;28;20342;-81
2021/07/28 03:20:51;;;;;;;9.50;5.88;;;;;;;;;;6177385;28;20092;-81
2021/07/28 03:23:52;;;;;;;10.30;5.78;;;;;;;;;;6174758;28;20057;-81
2021/07/28 03:26:54;;;;;;;12.07;6.13;;;;;;;;;;6158748;28;20062;-81
2021/07/28 03:29:56;;;;;;;9.52;5.43;;;;;;;;;;6140466;28;20278;-81
2021/07/28 03:32:57;;;;;;;9.77;5.72;;;;;;;;;;6135038;28;20125;-81
2021/07/28 03:35:59;;;;;;;13.77;5.75;;;;;;;;;;6167912;28;20037;-80
2021/07/28 03:39:01;;;;;;;11.10;6.10;;;;;;;;;;6153954;28;20129;-80
2021/07/28 03:42:03;;;;;;;11.40;5.93;;;;;;;;;;6123833;28;20838;-80
2021/07/28 03:45:06;;;;;;;11.00;6.20;;;;;;;;;;6146785;28;20030;-80
2021/07/28 03:48:08;;;;;;;12.27;5.93;;;;;;;;;;6172589;28;20045;-80
2021/07/28 03:51:09;;;;;;;12.77;6.53;;;;;;;;;;6140716;28;20104;-80
2021/07/28 03:54:11;;;;;;;11.32;6.53;;;;;;;;;;6128924;28;20390;-80
2021/07/28 03:57:13;;;;;;;10.00;6.25;;;;;;;;;;6154232;28;20128;-80
2021/07/28 04:00:15;;;;;;;13.73;7.30;;;;;;;;;;6148547;28;20052;-80
2021/07/28 04:03:16;;;;;;;14.98;7.88;;;;;;;;;;6170338;28;20048;-80
2021/07/28 04:06:19;;;;;;;18.45;8.52;;;;;;;;;;6127226;28;20198;-80
2021/07/28 04:09:20;;;;;;;13.43;7.10;;;;;;;;;;6147178;28;20053;-80
2021/07/28 04:12:22;;;;;;;11.77;6.65;;;;;;;;;;6136041;28;20067;-80
2021/07/28 04:15:23;;;;;;;13.68;7.55;;;;;;;;;;6171921;28;20449;-80
2021/07/28 04:18:25;;;;;;;17.15;7.97;;;;;;;;;;6160483;28;20444;-80
2021/07/28 04:21:27;;;;;;;13.63;7.35;;;;;;;;;;6133892;28;20135;-80
2021/07/28 04:24:28;;;;;;;15.38;7.32;;;;;;;;;;6146740;28;20046;-80
2021/07/28 04:27:31;;;;;;;12.18;7.00;;;;;;;;;;6154627;28;20435;-80
2021/07/28 04:30:33;;;;;;;12.45;7.32;;;;;;;;;;6173603;28;20054;-81
2021/07/28 04:33:34;;;;;;;12.98;6.38;;;;;;;;;;6170808;28;20038;-80
2021/07/28 04:36:36;;;;;;;12.00;7.03;;;;;;;;;;6169519;28;20421;-81
2021/07/28 04:39:37;;;;;;;12.85;7.78;;;;;;;;;;6171105;28;20062;-81
2021/07/28 04:42:39;;;;;;;11.52;7.18;;;;;;;;;;6168882;28;20120;-80
2021/07/28 04:45:41;;;;;;;12.60;7.03;;;;;;;;;;6153663;28;20042;-80
2021/07/28 04:48:42;;;;;;;13.90;7.20;;;;;;;;;;6152430;28;20034;-80
2021/07/28 04:51:44;;;;;;;13.88;7.10;;;;;;;;;;6170832;28;20038;-80
2021/07/28 04:54:45;;;;;;;15.70;7.57;;;;;;;;;;6151890;28;20061;-81
2021/07/28 04:57:47;;;;;;;13.65;8.05;;;;;;;;;;6151879;28;20109;-81
2021/07/28 05:00:49;;;;;;;13.73;7.68;;;;;;;;;;6169935;28;20272;-81
2021/07/28 05:03:51;;;;;;;14.25;7.55;;;;;;;;;;6168943;28;20038;-81
2021/07/28 05:06:53;;;;;;;13.23;7.80;;;;;;;;;;6168793;28;20158;-81
2021/07/28 05:09:54;;;;;;;11.48;6.75;;;;;;;;;;6169650;28;20088;-81
2021/07/28 05:12:56;;;;;;;12.63;6.97;;;;;;;;;;6149903;28;20088;-81
2021/07/28 05:15:58;;;;;;;13.70;7.53;;;;;;;;;;6150219;28;20057;-81
2021/07/28 05:18:59;;;;;;;15.35;8.50;;;;;;;;;;6161468;28;20062;-80
2021/07/28 05:22:01;;;;;;;12.63;7.85;;;;;;;;;;6169316;28;20185;-81
2021/07/28 05:25:03;;;;;;;15.63;8.43;;;;;;;;;;6135183;28;20177;-81
2021/07/28 05:28:08;;;;;;;13.82;7.93;;;;;;;;;;6167550;28;20099;-81
2021/07/28 05:31:09;;;;;;;13.73;8.20;;;;;;;;;;6167089;28;20057;-81
2021/07/28 05:34:11;;;;;;;12.18;8.15;;;;;;;;;;6166288;28;20661;-81
2021/07/28 05:37:13;;;;;;;13.02;8.18;;;;;;;;;;6150508;28;20109;-81
2021/07/28 05:40:15;;;;;;;16.05;8.73;;;;;;;;;;6152170;28;20120;-80
2021/07/28 05:43:16;;;;;;;13.55;7.72;;;;;;;;;;6151730;28;20115;-80
2021/07/28 05:46:18;;;;;;;14.30;8.30;;;;;;;;;;6167321;28;20069;-81
2021/07/28 05:49:19;;;;;;;13.32;7.68;;;;;;;;;;6168887;28;20789;-81
2021/07/28 05:52:21;;;;;;;12.20;7.78;;;;;;;;;;6152034;28;20057;-80
2021/07/28 05:55:23;;;;;;;12.10;8.00;;;;;;;;;;6131316;28;20062;-80
2021/07/28 05:58:24;;;;;;;12.00;7.40;;;;;;;;;;6150787;28;20257;-80
2021/07/28 06:01:26;;;;;;;14.20;7.97;;;;;;;;;;6152029;28;20056;-81
2021/07/28 06:04:28;;;;;;;12.20;7.53;;;;;;;;;;6167649;28;20168;-80
2021/07/28 06:07:30;;;;;;;13.20;8.40;;;;;;;;;;6167173;28;20154;-80
2021/07/28 06:10:32;;;;;;;12.70;7.45;;;;;;;;;;6170666;28;20129;-80
2021/07/28 06:13:34;;;;;;;12.80;8.00;;;;;;;;;;6150814;28;20124;-80
2021/07/28 06:16:35;;;;;;;13.23;8.02;;;;;;;;;;6151952;28;20038;-81
2021/07/28 06:19:38;;;;;;;14.07;7.95;;;;;;;;;;6152987;28;20038;-82
2021/07/28 06:22:40;;;;;;;13.27;7.97;;;;;;;;;;6150107;28;20244;-81
2021/07/28 06:25:41;;;;;;;13.05;8.60;;;;;;;;;;6169733;28;20189;-81
2021/07/28 06:28:43;;;;;;;13.10;8.13;;;;;;;;;;6141870;28;20901;-81
2021/07/28 06:31:45;;;;;;;11.60;7.47;;;;;;;;;;6151458;28;20050;-81
2021/07/28 06:34:46;;;;;;;13.85;7.30;;;;;;;;;;6143996;28;20343;-80
2021/07/28 06:37:48;;;;;;;12.63;7.78;;;;;;;;;;6148776;28;20348;-80
2021/07/28 06:40:50;;;;;;;14.02;8.18;;;;;;;;;;6157011;28;20049;-81
2021/07/28 06:43:56;;;;;;;13.75;7.47;;;;;;;;;;6147753;28;20037;-82
2021/07/28 06:46:57;;;;;;;12.30;7.70;;;;;;;;;;6165624;28;20128;-82
2021/07/28 06:49:59;;;;;;;10.70;7.60;;;;;;;;;;6146179;28;20057;-81
2021/07/28 06:53:01;;;;;;;11.02;7.50;;;;;;;;;;6184822;28;20047;-81
2021/07/28 06:56:03;;;;;;;12.77;7.53;;;;;;;;;;6154950;28;20049;-81
2021/07/28 06:59:04;;;;;;;11.30;7.30;;;;;;;;;;6139544;28;20139;-81
2021/07/28 07:02:06;;;;;;;12.07;7.55;;;;;;;;;;6162749;28;20914;-81
2021/07/28 07:05:10;;;;;;;10.90;7.35;;;;;;;;;;6139006;28;21034;-81
2021/07/28 07:08:13;;;;;;;11.93;7.60;;;;;;;;;;6159576;28;20041;-81
2021/07/28 07:11:15;;;;;;;13.32;7.65;;;;;;;;;;6160103;28;20244;-81
2021/07/28 07:14:17;;;;;;;12.63;7.30;;;;;;;;;;6138649;28;20064;-81
2021/07/28 07:17:18;;;;;;;10.93;7.53;;;;;;;;;;6158545;28;20033;-81
2021/07/28 07:20:20;;;;;;;12.45;7.63;;;;;;;;;;6126985;28;20821;-82
2021/07/28 07:23:22;;;;;;;14.55;8.00;;;;;;;;;;6133874;28;20082;-84
2021/07/28 07:26:23;;;;;;;12.60;8.40;;;;;;;;;;6145656;28;20034;-84
2021/07/28 07:29:25;;;;;;;13.32;8.23;;;;;;;;;;6158911;28;20105;-83
2021/07/28 07:32:29;;;;;;;13.63;8.20;;;;;;;;;;6181797;28;20040;-81
2021/07/28 07:35:31;;;;;;;12.40;8.82;;;;;;;;;;6137442;28;20110;-81
2021/07/28 07:38:33;;;;;;;13.27;8.23;;;;;;;;;;6123830;28;20133;-80
2021/07/28 07:41:35;;;;;;;14.07;8.48;;;;;;;;;;6123374;28;20387;-81
2021/07/28 07:44:37;;;;;;;14.02;8.32;;;;;;;;;;6164480;28;20046;-81
2021/07/28 07:47:38;;;;;;;15.75;8.82;;;;;;;;;;6146710;28;20204;-80
2021/07/28 07:50:40;;;;;;;11.80;8.02;;;;;;;;;;6158723;28;20379;-80
2021/07/28 07:53:43;;;;;;;12.35;8.52;;;;;;;;;;6152796;28;20048;-81
2021/07/28 07:56:44;;;;;;;11.02;7.70;;;;;;;;;;6133179;28;20046;-81
2021/07/28 07:59:46;;;;;;;10.80;7.50;;;;;;;;;;6187703;28;20139;-82
2021/07/28 08:02:47;;;;;;;11.90;8.55;;;;;;;;;;6198357;28;20187;-80
2021/07/28 08:05:49;;;;;;;10.93;8.35;;;;;;;;;;6176115;28;20038;-80
2021/07/28 08:08:51;;;;;;;14.73;8.98;;;;;;;;;;6155179;28;20037;-82
2021/07/28 08:11:54;;;;;;;13.57;8.38;;;;;;;;;;6147638;28;20088;-80
2021/07/28 08:14:55;;;;;;;;;;;;;;;;;;6143584;28;20116;-80
2021/07/28 08:17:57;;;;;;;13.65;8.50;;;;;;;;;;6172581;28;20565;-80
2021/07/28 08:20:59;;;;;;;14.00;8.18;;;;;;;;;;6168746;28;21100;-80
2021/07/28 08:24:00;;;;;;;12.32;7.97;;;;;;;;;;6167677;28;20117;-80
2021/07/28 08:27:02;;;;;;;13.13;8.32;;;;;;;;;;6172616;28;20048;-80
2021/07/28 08:30:04;;;;;;;13.00;8.25;;;;;;;;;;6153775;28;20034;-79
2021/07/28 08:33:06;;;;;;;13.27;8.55;;;;;;;;;;6157082;28;20089;-83
2021/07/28 08:36:08;;;;;;;13.18;8.93;;;;;;;;;;6157162;28;20768;-83
2021/07/28 08:39:10;;;;;;;12.18;8.18;;;;;;;;;;6158076;28;20740;-83
2021/07/28 08:42:12;;;;;;;13.77;7.63;;;;;;;;;;6151025;28;20052;-79
2021/07/28 08:45:16;;;;;;;10.93;7.70;;;;;;;;;;6163373;28;20804;-79
2021/07/28 08:48:19;;;;;;;13.25;8.75;;;;;;;;;;6180618;28;20734;-80
2021/07/28 08:51:25;;;;;;;;;;;;;;;;;;6149115;28;20748;-82
2021/07/28 08:54:26;;;;;;;10.57;7.18;;;;;;;;;;6137659;28;19944;-79
2021/07/28 08:57:31;;;;;;;11.80;7.80;;;;;;;;;;6137827;28;20117;-79
2021/07/28 09:00:42;;;;;;;13.85;9.02;;;;;;;;;;6153871;28;20258;-79
2021/07/28 09:03:45;;;;;;;12.05;7.82;;;;;;;;;;6154883;28;20835;-79
2021/07/28 09:06:47;;;;;;;11.35;7.15;;;;;;;;;;6137970;28;20038;-79
2021/07/28 09:09:53;;;;;;;11.73;7.82;;;;;;;;;;6136169;28;20848;-79
2021/07/28 09:12:54;;;;;;;11.98;7.70;;;;;;;;;;6137011;28;20030;-80
2021/07/28 09:16:02;;;;;;;11.43;8.18;;;;;;;;;;6135943;28;20686;-80
2021/07/28 09:19:03;;;;;;;10.52;7.82;;;;;;;;;;6153677;28;20089;-81
2021/07/28 09:22:06;;;;;;;12.27;8.32;;;;;;;;;;6142564;28;20085;-80
2021/07/28 09:25:19;;;;;;;11.93;8.77;;;;;;;;;;6161634;28;20105;-79
2021/07/28 09:28:21;;;;;;;13.60;8.57;;;;;;;;;;6166549;28;20665;-80
2021/07/28 09:31:41;;;;;;;11.07;8.73;;;;;;;;;;6131597;28;20041;-79
2021/07/28 09:34:43;;;;;;;13.55;8.82;;;;;;;;;;6133182;28;20061;-80
2021/07/28 09:37:44;;;;;;;11.60;8.43;;;;;;;;;;6159878;28;20049;-80
2021/07/28 09:40:46;;;;;;;13.50;9.05;;;;;;;;;;6171395;28;20892;-80
2021/07/28 09:44:02;;;;;;;13.70;8.27;;;;;;;;;;6172506;28;20108;-80
2021/07/28 09:47:08;;;;;;;12.77;8.48;;;;;;;;;;6156503;28;20037;-80
2021/07/28 09:50:10;;;;;;;11.50;8.07;;;;;;;;;;6156673;28;20455;-80
2021/07/28 09:53:11;;;;;;;11.80;8.50;;;;;;;;;;6112127;28;20110;-80
2021/07/28 09:56:25;;;;;;;9.85;7.50;;;;;;;;;;6158155;28;20393;-79
2021/07/28 09:59:29;;;;;;;11.18;7.60;;;;;;;;;;6160703;28;20711;-80
2021/07/28 10:02:32;;;;;;;14.35;8.65;;;;;;;;;;6193066;28;20053;-78
2021/07/28 10:05:38;;;;;;;12.45;8.38;;;;;;;;;;6153902;28;20054;-80
2021/07/28 10:08:40;;;;;;;11.27;8.30;;;;;;;;;;6130183;28;20436;-79
2021/07/28 10:11:47;;;;;;;11.75;8.27;;;;;;;;;;6145773;28;20392;-80
2021/07/28 10:14:50;;;;;;;12.05;8.50;;;;;;;;;;6167003;28;20045;-83
2021/07/28 10:17:54;;;;;;;12.20;8.27;;;;;;;;;;6161705;28;20060;-79
2021/07/28 10:20:56;;;;;;;11.82;8.82;;;;;;;;;;6155658;28;20066;-80
2021/07/28 10:23:57;;;;;;;14.10;8.70;;;;;;;;;;6203520;28;20800;-80
2021/07/28 10:27:01;;;;;;;16.33;9.73;;;;;;;;;;6180734;28;20492;-80
2021/07/28 10:30:06;;;;;;;9.25;5.63;;;;;;;;;;6198911;28;20851;-80
2021/07/28 10:33:26;;;;;;;7.18;4.20;;;;;;;;;;6198532;28;20037;-80
2021/07/28 10:36:48;;;;;;;5.57;3.95;;;;;;;;;;6173296;28;20464;-81
2021/07/28 10:39:52;;;;;;;7.47;4.82;;;;;;;;;;6153951;28;20322;-79
2021/07/28 10:42:54;;;;;;;8.55;5.25;;;;;;;;;;6152732;28;20038;-79
2021/07/28 10:45:58;;;;;;;6.60;5.25;;;;;;;;;;6168254;28;20144;-80
2021/07/28 10:49:00;;;;;;;8.82;6.47;;;;;;;;;;6153150;28;20062;-79
2021/07/28 10:52:03;;;;;;;8.20;6.40;;;;;;;;;;6169635;28;20544;-79
2021/07/28 10:55:04;;;;;;;9.13;5.55;;;;;;;;;;6151631;28;20037;-80
2021/07/28 10:58:06;;;;;;;8.35;6.28;;;;;;;;;;6171903;28;20057;-79
2021/07/28 11:01:08;;;;;;;7.50;5.60;;;;;;;;;;6190515;28;20045;-79
2021/07/28 11:04:23;;;;;;;6.27;5.20;;;;;;;;;;6192437;28;20037;-80
2021/07/28 11:08:05;;;;;;;6.35;4.88;;;;;;;;;;6185651;28;20042;-80
2021/07/28 11:11:07;;;;;;;7.72;5.70;;;;;;;;;;6192416;28;20083;-79
2021/07/28 11:14:09;;;;;;;7.70;5.68;;;;;;;;;;6197013;28;20034;-80
2021/07/28 11:17:10;;;;;;;8.40;5.90;;;;;;;;;;6180125;28;20048;-80
2021/07/28 11:20:28;;;;;;;6.70;5.35;;;;;;;;;;6180631;28;20830;-80
2021/07/28 11:23:29;;;;;;;6.43;5.40;;;;;;;;;;6197290;28;20847;-83
2021/07/28 11:26:40;;;;;;;7.93;5.70;;;;;;;;;;6145161;28;20070;-82
2021/07/28 11:29:42;;;;;;;7.13;5.32;;;;;;;;;;6132466;28;20480;-83
2021/07/28 11:32:43;;;;;;;6.03;5.20;;;;;;;;;;6130035;28;20405;-83
2021/07/28 11:35:46;;;;;;;8.55;5.40;;;;;;;;;;6156863;28;20049;-83
2021/07/28 11:38:48;;;;;;;6.32;5.18;;;;;;;;;;6149868;28;20049;-84
2021/07/28 11:42:00;;;;;;;7.50;5.45;;;;;;;;;;6165369;28;20745;-83
2021/07/28 11:45:02;;;;;;;6.53;4.90;;;;;;;;;;6139194;28;20089;-83
2021/07/28 11:48:34;;;;;;;5.97;4.37;;;;;;;;;;6123968;28;20469;-83
2021/07/28 11:51:36;;;;;;;6.13;4.68;;;;;;;;;;6120991;28;20053;-83
2021/07/28 11:54:38;;;;;;;7.60;5.00;;;;;;;;;;6141852;28;20121;-85
2021/07/28 11:57:42;;;;;;;5.82;4.93;;;;;;;;;;6162622;28;20100;-84
2021/07/28 12:00:46;;;;;;;7.35;5.07;;;;;;;;;;6161156;28;20181;-84
2021/07/28 12:03:49;;;;;;;5.75;4.85;;;;;;;;;;6164236;28;20053;-83
2021/07/28 12:06:53;;;;;;;5.95;4.90;;;;;;;;;;6160320;28;20845;-84
2021/07/28 12:09:59;;;;;;;7.13;4.45;;;;;;;;;;6160186;28;20038;-83
2021/07/28 12:13:18;;;;;;;4.68;3.95;;;;;;;;;;6142568;28;21099;-84
2021/07/28 12:16:20;;;;;;;4.43;3.83;;;;;;;;;;6158665;28;20056;-83
2021/07/28 12:19:41;;;;;;;5.50;4.03;;;;;;;;;;6160571;28;20895;-82
2021/07/28 12:22:43;;;;;;;5.57;3.97;;;;;;;;;;6160509;28;20896;-82
2021/07/28 12:25:46;;;;;;;5.50;4.00;;;;;;;;;;6141918;28;20034;-83
2021/07/28 12:28:51;;;;;;;5.07;4.05;;;;;;;;;;6127271;28;20101;-82
2021/07/28 12:31:52;;;;;;;5.35;4.00;;;;;;;;;;6132836;28;20039;-85
2021/07/28 12:34:54;;;;;;;6.28;3.92;;;;;;;;;;6128191;28;20103;-83
2021/07/28 12:38:14;;;;;;;5.00;3.67;;;;;;;;;;6157339;28;20044;-83
2021/07/28 12:41:18;;;;;;;5.07;4.28;;;;;;;;;;6158939;28;20045;-84
2021/07/28 12:44:19;;;;;;;10.70;4.10;;;;;;;;;;6139068;28;20762;-85
2021/07/28 12:47:21;;;;;;;5.07;3.47;;;;;;;;;;6138083;28;20128;-83
2021/07/28 12:50:22;;;;;;;3.85;3.33;;;;;;;;;;6155605;28;20773;-83
2021/07/28 12:53:25;;;;;;;3.83;3.28;;;;;;;;;;6155949;28;20180;-84
2021/07/28 12:56:27;;;;;;;4.57;3.38;;;;;;;;;;6139058;28;20321;-84
2021/07/28 12:59:29;;;;;;;3.50;2.90;;;;;;;;;;6135546;28;20885;-84
2021/07/28 13:02:34;;;;;;;3.10;2.73;;;;;;;;;;6179589;28;20782;-85
2021/07/28 13:05:40;;;;;;;2.83;2.53;;;;;;;;;;6161789;28;20441;-85
2021/07/28 13:08:42;;;;;;;3.35;2.60;;;;;;;;;;6153804;28;20382;-83
2021/07/28 13:11:43;;;;;;;2.95;2.55;;;;;;;;;;6138366;28;20041;-84
2021/07/28 13:14:45;;;;;;;2.92;2.55;;;;;;;;;;6152076;28;20651;-81
2021/07/28 13:17:47;;;;;;;2.80;2.35;;;;;;;;;;6177296;28;20774;-84
2021/07/28 13:20:48;;;;;;;3.85;2.72;;;;;;;;;;6127566;28;20129;-84
2021/07/28 13:23:50;;;;;;;3.95;2.80;;;;;;;;;;6113481;28;20246;-83
2021/07/28 13:26:52;;;;;;;3.00;2.70;;;;;;;;;;6133863;28;20128;-83
2021/07/28 13:29:53;;;;;;;4.73;2.57;;;;;;;;;;6155307;28;20184;-84
2021/07/28 13:32:55;;;;;;;3.58;2.75;;;;;;;;;;6138547;28;20041;-85
2021/07/28 13:35:57;;;;;;;2.90;2.47;;;;;;;;;;6136295;28;20184;-84
2021/07/28 13:38:58;;;;;;;2.95;2.47;;;;;;;;;;6152270;28;20037;-84
2021/07/28 13:42:00;;;;;;;3.85;2.38;;;;;;;;;;6137032;28;20080;-83
2021/07/28 13:45:02;;;;;;;2.23;1.93;;;;;;;;;;6136397;28;20116;-84
2021/07/28 13:48:04;;;;;;;2.28;1.83;;;;;;;;;;6154088;28;20061;-85
2021/07/28 13:51:07;;;;;;;3.17;2.17;;;;;;;;;;6151383;28;20342;-83
2021/07/28 13:54:09;;;;;;;2.22;1.90;;;;;;;;;;6155194;28;20034;-83
2021/07/28 13:57:16;;;;;;;3.05;2.00;;;;;;;;;;6155490;28;20037;-81
2021/07/28 14:00:19;;;;;;;2.60;1.80;;;;;;;;;;6167000;28;20045;-85
2021/07/28 14:03:20;;;;;;;3.35;2.17;;;;;;;;;;6144587;28;20820;-86
2021/07/28 14:06:22;;;;;;;2.25;2.00;;;;;;;;;;6125837;28;20048;-83
2021/07/28 14:09:24;;;;;;;2.10;1.90;;;;;;;;;;6153935;28;20057;-86
2021/07/28 14:12:26;;;;;;;3.22;2.05;;;;;;;;;;6102921;28;20046;-85
2021/07/28 14:15:28;;;;;;;2.20;1.92;;;;;;;;;;6115689;28;20060;-83
2021/07/28 14:18:30;;;;;;;2.10;1.90;;;;;;;;;;6151074;28;20387;-84
2021/07/28 14:21:32;;;;;;;4.93;2.08;;;;;;;;;;6108690;28;20117;-84
2021/07/28 14:24:34;;;;;;;2.88;2.28;;;;;;;;;;6151858;28;20315;-85
2021/07/28 14:27:36;;;;;;;;;;;;;;;;;;6134573;28;20092;-86
2021/07/28 14:30:37;;;;;;;3.50;2.08;;;;;;;;;;6133259;28;19960;-86
2021/07/28 14:33:39;;;;;;;2.60;2.10;;;;;;;;;;6112478;28;20851;-86
2021/07/28 14:36:41;;;;;;;2.22;1.85;;;;;;;;;;6146514;28;20049;-87
2021/07/28 14:39:43;;;;;;;2.13;1.90;;;;;;;;;;6150945;28;20125;-85
2021/07/28 14:42:47;;;;;;;2.10;1.90;;;;;;;;;;6134926;28;20463;-85
2021/07/28 14:45:49;;;;;;;2.53;1.70;;;;;;;;;;6146833;28;20045;-84
2021/07/28 14:48:53;;;;;;;3.05;2.00;;;;;;;;;;6149890;28;20734;-86
2021/07/28 14:51:56;;;;;;;2.70;1.98;;;;;;;;;;6151308;28;20045;-85
2021/07/28 14:54:58;;;;;;;2.28;1.92;;;;;;;;;;6124271;28;20062;-84
2021/07/28 14:58:00;;;;;;;3.90;2.08;;;;;;;;;;6144624;28;20034;-85
2021/07/28 15:01:02;;;;;;;2.87;2.00;;;;;;;;;;6154357;28;20041;-84
2021/07/28 15:04:04;;;;;;;2.60;2.03;;;;;;;;;;6122862;28;20052;-80
2021/07/28 15:07:06;;;;;;;2.67;2.15;;;;;;;;;;6149020;28;20034;-83
2021/07/28 15:10:08;;;;;;;3.88;2.45;;;;;;;;;;6134107;28;20037;-84
2021/07/28 15:13:11;;;;;;;4.63;1.90;;;;;;;;;;6131036;28;20817;-83
2021/07/28 15:16:12;;;;;;;3.80;2.15;;;;;;;;;;6151726;28;20124;-83
2021/07/28 15:19:16;;;;;;;6.30;2.43;;;;;;;;;;6165988;28;20042;-85
2021/07/28 15:22:18;;;;;;;3.90;2.30;;;;;;;;;;6120718;28;20535;-84
2021/07/28 15:25:20;;;;;;;2.55;2.33;;;;;;;;;;6137067;28;20873;-82
2021/07/28 15:28:22;;;;;;;3.33;2.37;;;;;;;;;;6152627;28;20691;-83
2021/07/28 15:31:24;;;;;;;3.17;2.17;;;;;;;;;;6155057;28;20560;-84
2021/07/28 15:34:25;;;;;;;3.13;1.98;;;;;;;;;;6152246;28;20117;-84
2021/07/28 15:37:27;;;;;;;3.33;2.15;;;;;;;;;;6158859;28;20529;-83
2021/07/28 15:40:29;;;;;;;4.07;1.87;;;;;;;;;;6149573;28;20044;-83
2021/07/28 15:43:30;;;;;;;3.65;1.80;;;;;;;;;;6155663;28;20037;-83
2021/07/28 15:46:33;;;;;;;5.45;2.13;;;;;;;;;;6124592;28;20910;-83
2021/07/28 15:49:41;;;;;;;2.58;1.98;;;;;;;;;;6095408;28;20053;-83
2021/07/28 15:52:43;;;;;;;3.17;2.00;;;;;;;;;;6132908;28;20390;-83
2021/07/28 15:55:45;;;;;;;2.17;1.95;;;;;;;;;;6119148;28;20046;-85
2021/07/28 15:58:47;;;;;;;2.58;2.00;;;;;;;;;;6141886;28;20053;-83
2021/07/28 16:01:48;;;;;;;2.88;2.13;;;;;;;;;;6124738;28;20050;-83
2021/07/28 16:04:50;;;;;;;3.63;2.10;;;;;;;;;;6123695;28;20043;-82
2021/07/28 16:07:53;;;;;;;2.55;1.95;;;;;;;;;;6137140;28;20472;-82
2021/07/28 16:10:55;;;;;;;2.90;1.98;;;;;;;;;;6178396;28;20041;-83
2021/07/28 16:14:03;;;;;;;2.10;1.90;;;;;;;;;;6142371;28;20046;-82
2021/07/28 16:17:23;;;;;;;2.08;1.88;;;;;;;;;;6157146;28;20049;-83
2021/07/28 16:20:25;;;;;;;2.13;1.92;;;;;;;;;;6164803;28;20132;-82
2021/07/28 16:23:28;;;;;;;3.17;2.03;;;;;;;;;;6177723;28;20049;-82
2021/07/28 16:26:30;;;;;;;2.83;2.03;;;;;;;;;;6147266;28;20050;-82
2021/07/28 16:29:32;;;;;;;2.23;1.87;;;;;;;;;;6136955;28;20400;-83
2021/07/28 16:32:33;;;;;;;3.13;2.10;;;;;;;;;;6126220;28;20097;-81
2021/07/28 16:35:36;;;;;;;3.22;2.08;;;;;;;;;;6127403;28;20042;-82
2021/07/28 16:38:38;;;;;;;3.25;2.03;;;;;;;;;;6110980;28;20132;-83
2021/07/28 16:41:40;;;;;;;2.80;2.27;;;;;;;;;;6167214;28;20932;-82
2021/07/28 16:44:41;;;;;;;2.25;2.05;;;;;;;;;;6160844;28;20045;-82
2021/07/28 16:47:43;;;;;;;3.53;1.85;;;;;;;;;;6163705;28;20051;-85
2021/07/28 16:50:45;;;;;;;4.18;1.90;;;;;;;;;;6161841;28;20101;-82
2021/07/28 16:53:46;;;;;;;2.23;1.90;;;;;;;;;;6163410;28;20125;-82
2021/07/28 16:56:49;;;;;;;3.83;1.85;;;;;;;;;;6164016;28;20056;-84
2021/07/28 16:59:51;;;;;;;1.50;1.40;;;;;;;;;;6133172;28;20944;-83
2021/07/28 17:02:52;;;;;;;1.42;1.33;;;;;;;;;;6158804;28;20931;-84
2021/07/28 17:05:54;;;;;;;3.75;1.65;;;;;;;;;;6180237;28;20115;-82
2021/07/28 17:08:56;;;;;;;2.65;1.52;;;;;;;;;;6161246;28;20048;-83
2021/07/28 17:11:58;;;;;;;2.20;1.50;;;;;;;;;;6185679;28;20948;-83
2021/07/28 17:14:59;;;;;;;1.73;1.42;;;;;;;;;;6147963;28;20384;-83
2021/07/28 17:18:01;;;;;;;1.50;1.40;;;;;;;;;;6159859;28;20680;-83
2021/07/28 17:21:03;;;;;;;1.65;1.42;;;;;;;;;;6101180;28;20316;-83
2021/07/28 17:24:06;;;;;;;2.45;1.45;;;;;;;;;;6145597;28;20041;-83
2021/07/28 17:27:07;;;;;;;1.80;1.55;;;;;;;;;;6154730;28;20038;-83
2021/07/28 17:30:15;;;;;;;2.22;1.52;;;;;;;;;;6141608;28;20120;-83
2021/07/28 17:33:16;;;;;;;1.80;1.30;;;;;;;;;;6125172;28;20133;-83
2021/07/28 17:36:20;;;;;;;2.83;1.63;;;;;;;;;;6145122;28;20042;-83
2021/07/28 17:39:22;;;;;;;2.08;1.40;;;;;;;;;;6142046;28;20042;-83
2021/07/28 17:42:24;;;;;;;1.67;1.58;;;;;;;;;;6143824;28;20045;-84
2021/07/28 17:45:26;;;;;;;1.45;1.35;;;;;;;;;;6152997;28;20050;-83
2021/07/28 17:48:28;;;;;;;3.72;1.73;;;;;;;;;;6154536;28;20456;-87
2021/07/28 17:51:29;;;;;;;1.67;1.33;;;;;;;;;;6138117;28;20887;-83
2021/07/28 17:54:31;;;;;;;3.42;1.33;;;;;;;;;;6156881;28;20180;-83
2021/07/28 17:57:33;;;;;;;2.83;1.40;;;;;;;;;;6140883;28;20783;-83
2021/07/28 18:00:35;;;;;;;3.60;1.80;;;;;;;;;;6174537;28;20140;-83
2021/07/28 18:03:37;;;;;;;2.63;1.60;;;;;;;;;;6185552;28;20124;-83
2021/07/28 18:06:43;;;;;;;3.20;1.60;;;;;;;;;;6154501;28;20105;-83
2021/07/28 18:09:47;;;;;;;2.80;1.63;;;;;;;;;;6139702;28;20395;-83
2021/07/28 18:12:48;;;;;;;2.08;1.70;;;;;;;;;;6140231;28;20029;-83
2021/07/28 18:15:50;;;;;;;2.80;1.75;;;;;;;;;;6134511;28;20045;-84